Mehriz, Iran
Current Conditions -  °F | °C
As of 10:30 AM on Thursday 27 Nov 2014 (Local Time) from OIYY Reporting Station
Haze Haze  
Wind Chill: 54°   Ceiling: Unl
Heat Index: 54°   Visibility: 1.8mi
Dew Point: 50°   Wind: 2mph
Humidity: 88%   Direction: 70°ENE
Pressure: 30.15"   Gusts: NA
Location:  31.58°N, 54.45°E
Report Text: OIYY 270630Z 07002KT 3000 BR SKC 12/10 Q1021
Loading
Personal Weather Stations






























Interactive Weather Map New forecast layout! Learn more

10-Day Weather Forecast

Advertisements
Track Severe Weather on mobile